createdAt,value
2018-05-12T00:01:59.628Z,11.63
2018-05-12T00:05:02.951Z,10.73
2018-05-12T00:08:06.281Z,13.73
2018-05-12T00:11:09.609Z,11.87
2018-05-12T00:14:12.917Z,8.87
2018-05-12T00:17:16.240Z,10.93
2018-05-12T00:20:19.544Z,10.23
2018-05-12T00:23:22.881Z,11.53
2018-05-12T00:26:26.189Z,11.67
2018-05-12T00:29:29.517Z,9.43
2018-05-12T00:32:33.593Z,9.07
2018-05-12T00:35:36.918Z,10.23
2018-05-12T00:38:41.004Z,8.00
2018-05-12T00:41:44.322Z,11.07
2018-05-12T00:44:47.648Z,10.83
2018-05-12T00:47:50.968Z,10.20
2018-05-12T00:50:54.270Z,7.83
2018-05-12T00:53:57.597Z,10.67
2018-05-12T00:57:00.905Z,9.90
2018-05-12T01:00:04.230Z,9.23
2018-05-12T01:03:07.555Z,8.80
2018-05-12T01:06:10.865Z,6.60
2018-05-12T01:09:14.209Z,8.13
2018-05-12T01:12:18.278Z,7.03
2018-05-12T01:15:21.610Z,11.40
2018-05-12T01:18:25.700Z,6.60
2018-05-12T01:21:29.000Z,9.33
2018-05-12T01:24:32.329Z,9.33
2018-05-12T01:27:36.397Z,10.50
2018-05-12T01:30:39.716Z,9.77
2018-05-12T01:33:43.031Z,8.87
2018-05-12T01:36:47.161Z,9.00
2018-05-12T01:39:50.494Z,11.30
2018-05-12T01:42:53.808Z,8.33
2018-05-12T01:45:57.136Z,8.23
2018-05-12T01:49:01.218Z,8.80
2018-05-12T01:52:04.577Z,7.30
2018-05-12T01:55:07.886Z,8.40
2018-05-12T01:58:11.209Z,8.40
2018-05-12T02:01:14.546Z,6.07
2018-05-12T02:04:18.637Z,8.50
2018-05-12T02:07:22.794Z,8.87
2018-05-12T02:10:26.061Z,6.40
2018-05-12T02:13:30.140Z,4.47
2018-05-12T02:16:33.461Z,7.63
2018-05-12T02:19:36.807Z,9.53
2018-05-12T02:22:40.113Z,8.17
2018-05-12T02:25:43.437Z,6.70
2018-05-12T02:28:46.749Z,8.40
2018-05-12T02:31:50.082Z,6.80
2018-05-12T02:34:53.393Z,7.63
2018-05-12T02:37:56.717Z,7.40
2018-05-12T02:41:00.034Z,8.53
2018-05-12T02:44:03.341Z,8.50
2018-05-12T02:47:07.419Z,7.17
2018-05-12T02:50:10.725Z,9.30
2018-05-12T02:53:14.054Z,6.70
2018-05-12T02:56:17.424Z,8.87
2018-05-12T02:59:20.749Z,6.87
2018-05-12T03:02:24.822Z,5.77
2018-05-12T03:05:28.144Z,6.53
2018-05-12T03:08:31.472Z,3.73
2018-05-12T03:11:34.776Z,7.60
2018-05-12T03:14:38.094Z,6.87
2018-05-12T03:17:41.407Z,6.77
2018-05-12T03:20:44.761Z,6.17
2018-05-12T03:23:48.078Z,5.70
2018-05-12T03:26:51.404Z,4.90
2018-05-12T03:29:54.736Z,9.03
2018-05-12T03:32:58.814Z,6.87
2018-05-12T03:36:02.136Z,8.20
2018-05-12T03:39:05.439Z,7.37
2018-05-12T03:42:09.526Z,6.10
2018-05-12T03:45:12.828Z,8.30
2018-05-12T03:48:16.594Z,6.67
2018-05-12T03:51:19.912Z,6.53
2018-05-12T03:54:23.208Z,6.90
2018-05-12T03:57:26.536Z,6.47
2018-05-12T04:00:30.600Z,4.47
2018-05-12T04:03:33.922Z,6.33
2018-05-12T04:06:55.021Z,5.13
2018-05-12T04:10:16.125Z,6.73
2018-05-12T04:13:20.224Z,6.00
2018-05-12T04:16:23.524Z,7.33
2018-05-12T04:19:26.858Z,10.20
2018-05-12T04:22:30.165Z,7.80
2018-05-12T04:25:33.498Z,8.33
2018-05-12T04:28:36.806Z,6.73
2018-05-12T04:31:40.124Z,9.37
2018-05-12T04:34:43.441Z,11.17
2018-05-12T04:37:46.756Z,7.57
2018-05-12T04:40:50.076Z,9.30
2018-05-12T04:43:54.152Z,7.07
2018-05-12T04:46:57.477Z,10.23
2018-05-12T04:50:01.558Z,9.97
2018-05-12T04:53:04.889Z,7.87
2018-05-12T04:56:08.958Z,8.00
2018-05-12T04:59:12.289Z,7.90
2018-05-12T05:02:15.609Z,7.37
2018-05-12T05:05:19.688Z,9.60
2018-05-12T05:08:23.024Z,7.97
2018-05-12T05:11:26.333Z,8.67
2018-05-12T05:14:29.658Z,10.43
2018-05-12T05:17:32.969Z,10.97
2018-05-12T05:20:36.298Z,9.70
2018-05-12T05:23:40.385Z,9.30
2018-05-12T05:26:43.714Z,9.50
2018-05-12T05:29:47.789Z,8.90
2018-05-12T05:32:51.114Z,9.73
2018-05-12T05:35:54.429Z,9.10
2018-05-12T05:38:57.755Z,9.67
2018-05-12T05:42:01.070Z,8.90
2018-05-12T05:45:04.419Z,9.47
2018-05-12T05:48:07.725Z,11.17
2018-05-12T05:51:11.051Z,9.50
2018-05-12T05:54:15.322Z,8.17
2018-05-12T05:57:18.865Z,12.30
2018-05-12T06:00:22.322Z,11.20
2018-05-12T06:03:26.420Z,10.77
2018-05-12T06:06:30.661Z,12.13
2018-05-12T06:09:34.318Z,9.97
2018-05-12T06:12:37.677Z,8.53
2018-05-12T06:15:41.062Z,8.53
2018-05-12T06:18:44.649Z,9.20
2018-05-12T06:21:48.760Z,10.50
2018-05-12T06:24:52.554Z,8.67
2018-05-12T06:27:56.046Z,10.20
2018-05-12T06:30:59.639Z,11.37
2018-05-12T06:34:02.940Z,9.10
2018-05-12T06:37:06.287Z,9.80
2018-05-12T06:40:09.593Z,11.60
2018-05-12T06:43:13.205Z,10.23
2018-05-12T06:46:16.913Z,9.17
2018-05-12T06:49:20.330Z,8.53
2018-05-12T06:52:23.696Z,12.73
2018-05-12T06:55:27.232Z,10.30
2018-05-12T06:58:30.566Z,15.27
2018-05-12T07:01:34.717Z,10.40
2018-05-12T07:04:38.076Z,12.23
2018-05-12T07:07:41.578Z,12.00
2018-05-12T07:10:45.683Z,10.47
2018-05-12T07:13:49.132Z,12.50
2018-05-12T07:16:52.478Z,12.57
2018-05-12T07:19:55.844Z,11.27
2018-05-12T07:22:59.196Z,10.90
2018-05-12T07:26:03.270Z,11.30
2018-05-12T07:29:06.598Z,11.13
2018-05-12T07:32:09.910Z,11.47
2018-05-12T07:35:13.985Z,11.03
2018-05-12T07:38:17.310Z,14.90
2018-05-12T07:41:21.389Z,13.47
2018-05-12T07:44:24.718Z,12.47
2018-05-12T07:47:28.824Z,12.27
2018-05-12T07:50:32.138Z,12.83
2018-05-12T07:53:36.233Z,13.80
2018-05-12T07:56:39.564Z,12.57
2018-05-12T07:59:42.897Z,14.17
2018-05-12T08:02:46.202Z,12.13
2018-05-12T08:05:49.525Z,14.40
2018-05-12T08:08:52.830Z,12.27
2018-05-12T08:11:56.920Z,13.40
2018-05-12T08:15:00.275Z,12.33
2018-05-12T08:18:03.814Z,12.53
2018-05-12T08:21:07.289Z,11.23
2018-05-12T08:24:10.600Z,11.10
2018-05-12T08:27:13.961Z,12.40
2018-05-12T08:30:17.392Z,14.37
2018-05-12T08:33:20.877Z,12.47
2018-05-12T08:36:24.331Z,11.57
2018-05-12T08:39:29.260Z,11.73
2018-05-12T08:42:32.809Z,11.43
2018-05-12T08:45:36.172Z,12.23
2018-05-12T08:48:40.305Z,14.50
2018-05-12T08:51:44.443Z,12.10
2018-05-12T08:54:48.645Z,13.60
2018-05-12T08:57:52.001Z,11.50
2018-05-12T09:00:55.615Z,12.23
2018-05-12T09:03:58.984Z,14.23
2018-05-12T09:07:02.333Z,12.33
2018-05-12T09:10:05.829Z,13.33
2018-05-12T09:13:09.917Z,11.97
2018-05-12T09:16:13.367Z,12.43
2018-05-12T09:19:16.722Z,13.10
2018-05-12T09:22:20.084Z,11.80
2018-05-12T09:25:23.421Z,12.40
2018-05-12T09:28:27.834Z,11.60
2018-05-12T09:31:31.169Z,12.30
2018-05-12T09:34:34.477Z,11.83
2018-05-12T09:37:37.811Z,10.93
2018-05-12T09:40:41.127Z,12.30
2018-05-12T09:43:45.293Z,12.37
2018-05-12T09:46:48.622Z,12.23
2018-05-12T09:49:51.954Z,14.93
2018-05-12T09:52:56.031Z,12.70
2018-05-12T09:55:59.350Z,16.97
2018-05-12T09:59:03.518Z,11.87
2018-05-12T10:02:06.837Z,10.27
2018-05-12T10:05:10.136Z,9.43
2018-05-12T10:08:13.444Z,8.77
2018-05-12T10:11:16.761Z,13.43
2018-05-12T10:14:20.845Z,12.43
2018-05-12T10:17:24.165Z,13.93
2018-05-12T10:20:28.242Z,12.57
2018-05-12T10:23:31.565Z,12.13
2018-05-12T10:26:34.885Z,9.93
2018-05-12T10:29:38.985Z,14.40
2018-05-12T10:32:43.052Z,9.93
2018-05-12T10:35:46.372Z,9.57
2018-05-12T10:38:49.683Z,9.90
2018-05-12T10:41:53.778Z,11.03
2018-05-12T10:44:57.101Z,11.83
2018-05-12T10:48:00.417Z,11.77
2018-05-12T10:51:04.500Z,12.67
2018-05-12T10:54:07.822Z,10.40
2018-05-12T10:57:11.910Z,9.90
2018-05-12T11:00:15.229Z,7.83
2018-05-12T11:03:19.333Z,8.27
2018-05-12T11:06:22.638Z,7.67
2018-05-12T11:09:26.749Z,7.77
2018-05-12T11:12:30.057Z,7.97
2018-05-12T11:15:33.365Z,8.90
2018-05-12T11:18:36.669Z,6.87
2018-05-12T11:21:40.025Z,7.40
2018-05-12T11:24:43.305Z,7.00
2018-05-12T11:27:46.617Z,7.30
2018-05-12T11:30:49.924Z,8.90
2018-05-12T11:33:53.232Z,8.37
2018-05-12T11:36:57.297Z,9.50
2018-05-12T11:40:00.615Z,8.27
2018-05-12T11:43:03.922Z,6.87
2018-05-12T11:46:07.249Z,9.37
2018-05-12T11:49:10.553Z,8.33
2018-05-12T11:52:13.877Z,8.10
2018-05-12T11:55:17.185Z,10.80
2018-05-12T11:58:20.523Z,8.10
2018-05-12T12:01:24.600Z,13.30
2018-05-12T12:04:27.938Z,12.80
2018-05-12T12:07:32.004Z,7.77
2018-05-12T12:10:35.318Z,8.33
2018-05-12T12:13:38.643Z,7.80
2018-05-12T12:16:42.801Z,7.87
2018-05-12T12:19:46.835Z,10.97
2018-05-12T12:22:50.172Z,12.60
2018-05-12T12:25:53.485Z,7.43
2018-05-12T12:28:56.809Z,10.67
2018-05-12T12:32:00.107Z,8.80
2018-05-12T12:35:03.425Z,6.53
2018-05-12T12:38:06.729Z,6.83
2018-05-12T12:41:10.059Z,7.50
2018-05-12T12:44:14.277Z,9.70
2018-05-12T12:47:17.609Z,10.17
2018-05-12T12:50:20.928Z,9.60
2018-05-12T12:53:24.246Z,11.03
2018-05-12T12:56:28.432Z,8.17
2018-05-12T12:59:31.742Z,9.40
2018-05-12T13:02:35.116Z,8.40
2018-05-12T13:05:38.443Z,11.63
2018-05-12T13:08:41.749Z,7.43
2018-05-12T13:11:45.836Z,10.57
2018-05-12T13:14:49.149Z,10.50
2018-05-12T13:17:52.479Z,10.80
2018-05-12T13:20:55.794Z,8.63
2018-05-12T13:23:59.121Z,9.73
2018-05-12T13:27:02.549Z,10.30
2018-05-12T13:30:06.692Z,12.97
2018-05-12T13:33:10.018Z,11.90
2018-05-12T13:36:13.542Z,13.33
2018-05-12T13:39:16.882Z,11.67
2018-05-12T13:42:20.209Z,12.97
2018-05-12T13:45:23.528Z,12.00
2018-05-12T13:48:26.853Z,10.63
2018-05-12T13:51:30.922Z,12.03
2018-05-12T13:54:34.237Z,11.93
2018-05-12T13:57:37.538Z,8.67
2018-05-12T14:00:40.862Z,8.63
2018-05-12T14:03:44.946Z,8.43
2018-05-12T14:06:48.266Z,10.60
2018-05-12T14:09:52.343Z,8.37
2018-05-12T14:12:55.664Z,7.90
2018-05-12T14:15:58.970Z,8.90
2018-05-12T14:19:03.145Z,7.13
2018-05-12T14:22:06.389Z,8.90
2018-05-12T14:25:10.457Z,9.50
2018-05-12T14:28:13.778Z,9.37
2018-05-12T14:31:17.090Z,6.67
2018-05-12T14:34:21.277Z,8.60
2018-05-12T14:37:24.580Z,7.67
2018-05-12T14:40:27.930Z,6.57
2018-05-12T14:43:31.237Z,12.23
2018-05-12T14:46:34.560Z,7.30
2018-05-12T14:49:37.871Z,12.53
2018-05-12T14:52:41.203Z,9.90
2018-05-12T14:55:44.514Z,12.77
2018-05-12T14:58:48.606Z,14.33
2018-05-12T15:01:52.694Z,9.80
2018-05-12T15:04:56.004Z,9.80
2018-05-12T15:07:59.315Z,11.20
2018-05-12T15:11:03.433Z,11.33
2018-05-12T15:14:07.511Z,10.40
2018-05-12T15:17:10.832Z,9.80
2018-05-12T15:20:14.913Z,12.60
2018-05-12T15:23:18.270Z,10.70
2018-05-12T15:26:21.594Z,13.97
2018-05-12T15:29:24.916Z,14.37
2018-05-12T15:32:28.231Z,14.17
2018-05-12T15:35:32.318Z,12.87
2018-05-12T15:38:35.640Z,16.93
2018-05-12T15:41:39.749Z,15.87
2018-05-12T15:44:43.061Z,17.50
2018-05-12T15:47:47.155Z,16.87
2018-05-12T15:50:50.485Z,14.70
2018-05-12T15:53:54.560Z,14.97
2018-05-12T15:56:57.882Z,14.83
2018-05-12T16:00:01.973Z,14.93
2018-05-12T16:03:05.298Z,12.73
2018-05-12T16:06:09.401Z,10.40
2018-05-12T16:09:13.485Z,12.43
2018-05-12T16:12:16.911Z,13.87
2018-05-12T16:15:20.156Z,14.10
2018-05-12T16:18:24.249Z,14.53
2018-05-12T16:21:27.562Z,13.10
2018-05-12T16:24:30.877Z,14.27
2018-05-12T16:27:34.191Z,16.07
2018-05-12T16:30:37.512Z,14.80
2018-05-12T16:33:41.587Z,18.97
2018-05-12T16:36:44.906Z,14.07
2018-05-12T16:39:48.220Z,12.90
2018-05-12T16:42:52.313Z,16.13
2018-05-12T16:45:55.616Z,12.73
2018-05-12T16:48:58.918Z,12.23
2018-05-12T16:52:02.249Z,13.57
2018-05-12T16:55:05.557Z,13.07
2018-05-12T16:58:08.896Z,14.77
2018-05-12T17:01:12.212Z,11.90
2018-05-12T17:04:16.306Z,10.70
2018-05-12T17:07:19.625Z,11.03
2018-05-12T17:10:22.956Z,9.47
2018-05-12T17:13:26.268Z,9.83
2018-05-12T17:16:29.580Z,11.77
2018-05-12T17:19:32.877Z,13.67
2018-05-12T17:22:36.213Z,12.23
2018-05-12T17:25:40.289Z,15.07
2018-05-12T17:28:43.627Z,12.20
2018-05-12T17:31:47.723Z,11.27
2018-05-12T17:34:51.050Z,16.67
2018-05-12T17:37:54.400Z,16.67
2018-05-12T17:40:57.710Z,15.23
2018-05-12T17:44:01.030Z,16.77
2018-05-12T17:47:05.120Z,16.30
2018-05-12T17:50:08.451Z,13.27
2018-05-12T17:53:11.765Z,16.43
2018-05-12T17:56:15.085Z,13.37
2018-05-12T17:59:18.412Z,11.60
2018-05-12T18:02:22.501Z,13.77
2018-05-12T18:05:25.805Z,13.97
2018-05-12T18:08:29.120Z,11.60
2018-05-12T18:11:32.452Z,13.87
2018-05-12T18:14:36.530Z,12.67
2018-05-12T18:17:39.846Z,16.90
2018-05-12T18:20:43.929Z,14.57
2018-05-12T18:23:47.225Z,12.53
2018-05-12T18:26:50.550Z,13.73
2018-05-12T18:29:54.612Z,8.90
2018-05-12T18:32:58.013Z,9.73
2018-05-12T18:36:01.254Z,11.37
2018-05-12T18:39:06.304Z,7.77
2018-05-12T18:42:09.548Z,9.57
2018-05-12T18:45:12.898Z,7.57
2018-05-12T18:48:17.152Z,9.27
2018-05-12T18:51:20.469Z,9.47
2018-05-12T18:54:23.812Z,10.23
2018-05-12T18:57:27.132Z,8.00
2018-05-12T19:00:31.222Z,8.00
2018-05-12T19:03:34.533Z,7.13
2018-05-12T19:06:37.858Z,8.83
2018-05-12T19:09:41.167Z,8.77
2018-05-12T19:12:44.480Z,9.70
2018-05-12T19:15:47.791Z,7.63
2018-05-12T19:18:51.868Z,7.00
2018-05-12T19:21:55.189Z,9.23
2018-05-12T19:24:58.494Z,7.47
2018-05-12T19:28:02.572Z,9.07
2018-05-12T19:31:05.949Z,8.83
2018-05-12T19:34:09.226Z,10.37
2018-05-12T19:37:12.530Z,10.20
2018-05-12T19:40:15.866Z,9.00
2018-05-12T19:43:19.189Z,10.13
2018-05-12T19:46:22.497Z,11.47
2018-05-12T19:49:26.577Z,12.43
2018-05-12T19:52:29.908Z,7.90
2018-05-12T19:55:33.990Z,7.53
2018-05-12T19:58:37.309Z,9.30
2018-05-12T20:01:41.427Z,14.03
2018-05-12T20:04:45.502Z,6.97
2018-05-12T20:07:48.825Z,10.33
2018-05-12T20:10:52.142Z,10.90
2018-05-12T20:13:56.214Z,7.70
2018-05-12T20:16:59.527Z,7.63
2018-05-12T20:20:02.846Z,8.43
2018-05-12T20:23:06.919Z,8.77
2018-05-12T20:26:10.245Z,10.37
2018-05-12T20:29:13.558Z,11.00
2018-05-12T20:32:17.637Z,9.37
2018-05-12T20:35:20.945Z,11.27
2018-05-12T20:38:24.271Z,11.63
2018-05-12T20:41:27.590Z,13.77
2018-05-12T20:44:31.693Z,14.90
2018-05-12T20:47:35.064Z,9.60
2018-05-12T20:50:38.318Z,11.47
2018-05-12T20:53:41.650Z,10.13
2018-05-12T20:56:44.966Z,10.37
2018-05-12T20:59:48.300Z,11.33
2018-05-12T21:02:51.609Z,15.13
2018-05-12T21:05:54.950Z,13.83
2018-05-12T21:08:59.026Z,12.27
2018-05-12T21:12:02.345Z,13.40
2018-05-12T21:15:05.665Z,12.63
2018-05-12T21:18:08.978Z,13.23
2018-05-12T21:21:12.302Z,11.97
2018-05-12T21:24:15.605Z,11.80
2018-05-12T21:27:18.930Z,11.77
2018-05-12T21:30:22.237Z,13.30
2018-05-12T21:33:26.339Z,11.87
2018-05-12T21:36:30.434Z,13.67
2018-05-12T21:39:33.758Z,13.07
2018-05-12T21:42:37.066Z,12.27
2018-05-12T21:45:41.157Z,14.60
2018-05-12T21:48:44.478Z,11.77
2018-05-12T21:51:48.582Z,13.90
2018-05-12T21:54:52.663Z,13.50
2018-05-12T21:57:55.987Z,14.10
2018-05-12T22:00:59.303Z,11.30
2018-05-12T22:04:03.409Z,15.20
2018-05-12T22:07:07.489Z,13.57
2018-05-12T22:10:10.810Z,13.40
2018-05-12T22:13:14.121Z,14.07
2018-05-12T22:16:18.204Z,13.57
2018-05-12T22:19:21.510Z,16.80
2018-05-12T22:22:24.829Z,15.63
2018-05-12T22:25:28.896Z,14.47
2018-05-12T22:28:32.222Z,15.13
2018-05-12T22:31:35.530Z,12.67
2018-05-12T22:34:39.625Z,12.50
2018-05-12T22:37:42.930Z,14.80
2018-05-12T22:40:46.248Z,13.73
2018-05-12T22:43:50.343Z,11.93
2018-05-12T22:46:53.650Z,13.07
2018-05-12T22:49:57.744Z,15.87
2018-05-12T22:53:01.056Z,13.67
2018-05-12T22:56:05.132Z,15.87
2018-05-12T22:59:08.553Z,15.53
2018-05-12T23:02:11.857Z,17.40
2018-05-12T23:05:16.033Z,18.27
2018-05-12T23:08:19.373Z,16.40
2018-05-12T23:11:22.682Z,19.50
2018-05-12T23:14:26.769Z,17.40
2018-05-12T23:17:30.085Z,17.37
2018-05-12T23:20:33.422Z,17.57
2018-05-12T23:23:36.730Z,23.00
2018-05-12T23:26:40.046Z,20.97
2018-05-12T23:29:43.353Z,22.13
2018-05-12T23:32:46.669Z,22.67
2018-05-12T23:35:50.750Z,25.97
2018-05-12T23:38:54.069Z,26.03
2018-05-12T23:41:57.400Z,27.37
2018-05-12T23:45:00.709Z,28.27
2018-05-12T23:48:04.025Z,28.83
2018-05-12T23:51:07.336Z,27.60
2018-05-12T23:54:10.662Z,28.37
2018-05-12T23:57:13.973Z,29.20
